Time;durP1;ratioP1;P1;durP2;ratioP2;P2;SDS_P1;SDS_P2;PMS_P1;PMS_P2;Temp;Humidity;BMP_temperature;BMP_pressure;BME280_temperature;BME280_humidity;BME280_pressure;Samples;Min_cycle;Max_cycle;Signal;HPM_P1;HPM_P2
2023/04/02 00:00:17;;;;;;;6.73;6.23;;;10.30;99.90;;;;;;4895408;29;20422;-84
2023/04/02 00:02:58;;;;;;;7.63;7.03;;;10.30;99.90;;;;;;4897890;29;20420;-84
2023/04/02 00:05:24;;;;;;;7.33;6.83;;;10.20;99.90;;;;;;4896479;29;20439;-84
2023/04/02 00:07:52;;;;;;;6.27;5.87;;;10.30;99.90;;;;;;4896752;29;20440;-84
2023/04/02 00:10:37;;;;;;;7.10;6.60;;;10.20;99.90;;;;;;4897127;29;20414;-83
2023/04/02 00:13:22;;;;;;;8.20;7.40;;;10.20;99.90;;;;;;4897167;29;20632;-84
2023/04/02 00:15:50;;;;;;;6.80;6.30;;;10.10;99.90;;;;;;4896612;29;20432;-83
2023/04/02 00:18:20;;;;;;;7.80;7.20;;;10.20;99.90;;;;;;4897070;29;20434;-83
2023/04/02 00:20:59;;;;;;;7.07;6.57;;;10.10;99.90;;;;;;4897162;29;21009;-83
2023/04/02 00:23:25;;;;;;;8.03;7.33;;;10.10;99.90;;;;;;4879378;29;20431;-83
2023/04/02 00:25:51;;;;;;;7.43;6.83;;;10.10;99.90;;;;;;4886391;29;20840;-83
2023/04/02 00:28:19;;;;;;;6.40;6.00;;;10.10;99.90;;;;;;4898087;29;20564;-83
2023/04/02 00:30:51;;;;;;;8.07;7.47;;;10.00;99.90;;;;;;4896395;29;20209;-83
2023/04/02 00:33:20;;;;;;;7.93;7.13;;;10.00;99.90;;;;;;4897053;29;20942;-83
2023/04/02 00:35:49;;;;;;;7.63;6.93;;;10.00;99.90;;;;;;4895919;29;20430;-83
2023/04/02 00:38:35;;;;;;;6.70;6.20;;;9.90;99.90;;;;;;4897359;29;20781;-84
2023/04/02 00:41:03;;;;;;;7.17;6.67;;;9.90;99.90;;;;;;4895774;29;20436;-83
2023/04/02 00:43:37;;;;;;;6.03;5.73;;;9.80;99.90;;;;;;4897131;29;20432;-83
2023/04/02 00:46:09;;;;;;;6.43;6.03;;;9.70;99.90;;;;;;4896465;29;20443;-83
2023/04/02 00:48:56;;;;;;;7.70;7.00;;;9.60;99.90;;;;;;4884396;29;20445;-84
2023/04/02 00:51:34;;;;;;;7.50;6.80;;;9.60;99.90;;;;;;4891555;29;20459;-83
2023/04/02 00:54:04;;;;;;;7.30;6.60;;;9.60;99.90;;;;;;4896193;29;20431;-84
2023/04/02 00:56:42;;;;;;;7.20;6.60;;;9.60;99.90;;;;;;4897623;29;20405;-84
2023/04/02 00:59:29;;;;;;;7.00;6.50;;;9.70;99.90;;;;;;4896873;29;20438;-84
2023/04/02 01:02:17;;;;;;;7.67;6.97;;;9.60;99.90;;;;;;4894597;29;20432;-84
2023/04/02 01:04:53;;;;;;;8.03;7.33;;;9.50;99.90;;;;;;4895919;29;20436;-83
2023/04/02 01:07:45;;;;;;;7.57;6.97;;;9.50;99.90;;;;;;4896081;29;20416;-84
2023/04/02 01:10:14;;;;;;;7.93;7.10;;;9.40;99.90;;;;;;4891272;29;20446;-83
2023/04/02 01:13:12;;;;;;;7.20;6.70;;;9.40;99.90;;;;;;4895918;29;20446;-81
2023/04/02 01:15:48;;;;;;;7.23;6.70;;;9.40;99.90;;;;;;4880639;29;20435;-83
2023/04/02 01:18:37;;;;;;;7.47;6.87;;;9.50;99.90;;;;;;4896650;29;20428;-83
2023/04/02 01:21:27;;;;;;;7.60;7.00;;;9.40;99.90;;;;;;4895767;29;20653;-83
2023/04/02 01:24:03;;;;;;;7.30;6.70;;;9.40;99.90;;;;;;4886934;29;20427;-83
2023/04/02 01:26:28;;;;;;;7.37;6.77;;;9.40;99.90;;;;;;4895742;29;20433;-83
2023/04/02 01:28:54;;;;;;;6.60;6.20;;;9.50;99.90;;;;;;4895521;29;20430;-82
2023/04/02 01:31:21;;;;;;;8.00;7.40;;;9.50;99.90;;;;;;4895109;29;20223;-84
2023/04/02 01:33:47;;;;;;;8.13;7.03;;;9.40;99.90;;;;;;4896366;29;20738;-83
2023/04/02 01:36:40;;;;;;;7.73;7.00;;;9.40;99.90;;;;;;4894627;29;20464;-83
2023/04/02 01:39:44;;;;;;;6.83;6.23;;;9.50;99.90;;;;;;4895749;29;20991;-83
2023/04/02 01:42:45;;;;;;;7.47;6.87;;;9.50;99.90;;;;;;4896164;29;20453;-84
2023/04/02 01:45:14;;;;;;;6.33;5.90;;;9.50;99.90;;;;;;4893737;29;20793;-84
2023/04/02 01:47:41;;;;;;;6.30;5.90;;;9.60;99.90;;;;;;4896686;29;20784;-85
2023/04/02 01:50:30;;;;;;;6.20;5.80;;;9.60;99.90;;;;;;4899498;29;20436;-84
2023/04/02 01:52:59;;;;;;;5.97;5.57;;;9.40;99.90;;;;;;4898099;29;20475;-84
2023/04/02 01:55:32;;;;;;;6.60;6.10;;;9.30;99.90;;;;;;4900066;29;20471;-84
2023/04/02 01:58:00;;;;;;;7.07;6.37;;;9.20;99.90;;;;;;4912652;29;20953;-84
2023/04/02 02:00:29;;;;;;;6.83;6.33;;;9.00;99.90;;;;;;4898939;29;20435;-85
2023/04/02 02:02:55;;;;;;;6.93;6.33;;;9.00;99.90;;;;;;4898904;29;20915;-86
2023/04/02 02:05:22;;;;;;;6.57;6.10;;;9.10;99.90;;;;;;4899937;29;20835;-84
2023/04/02 02:07:49;;;;;;;7.67;7.07;;;9.10;99.90;;;;;;4899948;29;20507;-84
2023/04/02 02:10:37;;;;;;;6.37;5.97;;;9.20;99.90;;;;;;4883025;29;20526;-85
2023/04/02 02:13:03;;;;;;;6.77;6.30;;;9.20;99.90;;;;;;4899297;29;20826;-84
2023/04/02 02:15:32;;;;;;;7.33;6.70;;;9.10;99.90;;;;;;4899696;29;20415;-83
2023/04/02 02:18:03;;;;;;;7.53;6.93;;;9.20;99.90;;;;;;4914143;29;20787;-82
2023/04/02 02:20:31;;;;;;;7.57;6.90;;;9.00;99.90;;;;;;4899610;29;20795;-84
2023/04/02 02:22:57;;;;;;;8.20;7.50;;;9.00;99.90;;;;;;4898794;29;20420;-83
2023/04/02 02:25:30;;;;;;;7.43;6.93;;;9.00;99.90;;;;;;4900526;29;20433;-84
2023/04/02 02:28:17;;;;;;;6.37;5.90;;;9.00;99.90;;;;;;4913206;29;20475;-83
2023/04/02 02:30:50;;;;;;;7.43;6.73;;;9.10;99.90;;;;;;4899191;29;20466;-83
2023/04/02 02:33:27;;;;;;;7.07;6.50;;;9.10;99.90;;;;;;4885233;29;20431;-84
2023/04/02 02:35:59;;;;;;;7.07;6.57;;;9.00;99.90;;;;;;4898059;29;20423;-83
2023/04/02 02:38:33;;;;;;;7.00;6.60;;;9.00;99.90;;;;;;4899099;29;20483;-84
2023/04/02 02:41:09;;;;;;;7.33;6.73;;;8.90;99.90;;;;;;4898538;29;20439;-84
2023/04/02 02:44:04;;;;;;;7.50;6.93;;;9.00;99.90;;;;;;4900221;29;20388;-84
2023/04/02 02:46:32;;;;;;;8.40;7.60;;;8.90;99.90;;;;;;4899988;29;20403;-84
2023/04/02 02:48:59;;;;;;;8.53;7.93;;;8.80;99.90;;;;;;4898987;29;20415;-84
2023/04/02 02:51:47;;;;;;;7.70;7.20;;;8.70;99.90;;;;;;4899017;29;20959;-84
2023/04/02 02:54:16;;;;;;;7.07;6.67;;;8.80;99.90;;;;;;4899376;29;20458;-85
2023/04/02 02:56:47;;;;;;;7.23;6.63;;;8.70;99.90;;;;;;4899774;29;20495;-84
2023/04/02 02:59:15;;;;;;;6.93;6.40;;;8.70;99.90;;;;;;4897013;29;20427;-84
2023/04/02 03:01:43;;;;;;;7.60;7.10;;;8.60;99.90;;;;;;4898941;29;20527;-84
2023/04/02 03:04:09;;;;;;;7.83;7.23;;;8.60;99.90;;;;;;4913326;29;20431;-84
2023/04/02 03:06:35;;;;;;;7.00;6.47;;;8.50;99.90;;;;;;4898546;29;20463;-84
2023/04/02 03:09:16;;;;;;;7.30;6.70;;;8.60;99.90;;;;;;4897554;29;20471;-84
2023/04/02 03:12:07;;;;;;;7.40;6.90;;;8.60;99.90;;;;;;4898841;29;20475;-84
2023/04/02 03:14:41;;;;;;;7.53;6.93;;;8.70;99.90;;;;;;4898740;29;20423;-83
2023/04/02 03:17:22;;;;;;;6.90;6.50;;;8.70;99.90;;;;;;4898627;29;21037;-84
2023/04/02 03:20:13;;;;;;;7.20;6.70;;;8.80;99.90;;;;;;4897274;29;20939;-81
2023/04/02 03:23:01;;;;;;;7.67;6.67;;;8.80;99.90;;;;;;4897210;29;20875;-84
2023/04/02 03:25:43;;;;;;;8.60;7.70;;;8.70;99.90;;;;;;4899385;29;20424;-84
2023/04/02 03:28:22;;;;;;;7.27;6.70;;;8.80;99.90;;;;;;4896385;29;20551;-83
2023/04/02 03:31:26;;;;;;;6.40;5.93;;;8.70;99.90;;;;;;4898126;29;20963;-82
2023/04/02 03:34:09;;;;;;;7.10;6.50;;;8.70;99.90;;;;;;4888952;29;20455;-84
2023/04/02 03:37:00;;;;;;;7.90;7.10;;;8.80;99.90;;;;;;4898462;29;20411;-83
2023/04/02 03:39:35;;;;;;;7.30;6.70;;;8.80;99.90;;;;;;4885142;29;20447;-84
2023/04/02 03:42:00;;;;;;;8.00;7.30;;;8.60;99.90;;;;;;4897354;29;20439;-83
2023/04/02 03:44:36;;;;;;;7.00;6.50;;;8.60;99.90;;;;;;4898070;29;20503;-84
2023/04/02 03:47:28;;;;;;;8.40;7.63;;;8.60;99.90;;;;;;4881180;29;20190;-83
2023/04/02 03:50:12;;;;;;;6.73;6.23;;;8.60;99.90;;;;;;4892689;29;20786;-83
2023/04/02 03:52:38;;;;;;;7.33;6.73;;;8.60;99.90;;;;;;4898241;29;20947;-84
2023/04/02 03:55:15;;;;;;;9.20;8.00;;;8.60;99.90;;;;;;4897090;29;20416;-85
2023/04/02 03:57:59;;;;;;;8.97;8.23;;;8.70;99.90;;;;;;4898584;29;20527;-84
2023/04/02 04:00:43;;;;;;;7.90;7.10;;;8.70;99.90;;;;;;4896567;29;20793;-84
2023/04/02 04:03:20;;;;;;;7.30;6.60;;;8.60;99.90;;;;;;4911426;29;20965;-84
2023/04/02 04:05:59;;;;;;;7.80;7.20;;;8.60;99.90;;;;;;4896586;29;20451;-84
2023/04/02 04:08:55;;;;;;;8.20;7.50;;;8.50;99.90;;;;;;4898671;29;20442;-84
2023/04/02 04:11:29;;;;;;;8.37;7.57;;;8.60;99.90;;;;;;4867470;29;21047;-84
2023/04/02 04:14:18;;;;;;;8.63;7.93;;;8.50;99.90;;;;;;4895347;29;20450;-83
2023/04/02 04:16:54;;;;;;;8.63;7.93;;;8.50;99.90;;;;;;4897510;29;20787;-84
2023/04/02 04:19:31;;;;;;;9.00;8.20;;;8.50;99.90;;;;;;4912196;29;20462;-84
2023/04/02 04:22:13;;;;;;;8.70;7.93;;;8.40;99.90;;;;;;4897587;29;20411;-84
2023/04/02 04:24:44;;;;;;;8.40;7.60;;;8.40;99.90;;;;;;4897568;29;20502;-84
2023/04/02 04:27:41;;;;;;;9.10;8.20;;;8.40;99.90;;;;;;4896711;29;20466;-84
2023/04/02 04:30:44;;;;;;;7.60;7.10;;;8.30;99.90;;;;;;4894895;29;20758;-82
2023/04/02 04:33:38;;;;;;;7.40;6.80;;;8.50;99.90;;;;;;4896687;29;20443;-85
2023/04/02 04:36:17;;;;;;;8.90;8.00;;;8.50;99.90;;;;;;4892852;29;20519;-86
2023/04/02 04:38:54;;;;;;;8.57;7.87;;;8.50;99.90;;;;;;4894564;29;20974;-87
2023/04/02 04:41:35;;;;;;;8.90;8.07;;;8.40;99.90;;;;;;4897188;29;20435;-87
2023/04/02 04:44:09;;;;;;;9.23;8.33;;;8.30;99.90;;;;;;4897228;29;20400;-87
2023/04/02 04:46:50;;;;;;;9.87;8.97;;;8.20;99.90;;;;;;4878103;29;20758;-88
2023/04/02 04:49:31;;;;;;;9.00;8.30;;;8.20;99.90;;;;;;4888399;29;20526;-87
2023/04/02 04:51:59;;;;;;;10.50;9.10;;;8.20;99.90;;;;;;4896257;29;20473;-87
2023/04/02 04:54:27;;;;;;;10.17;9.20;;;8.30;99.90;;;;;;4896028;29;20466;-87
2023/04/02 04:57:01;;;;;;;9.63;8.83;;;8.30;99.90;;;;;;4896608;29;20466;-84
2023/04/02 04:59:42;;;;;;;10.00;9.10;;;8.20;99.90;;;;;;4895706;29;20438;-87
2023/04/02 05:02:22;;;;;;;9.03;8.33;;;8.10;99.90;;;;;;4890069;29;20434;-88
2023/04/02 05:04:50;;;;;;;9.63;8.63;;;8.20;99.90;;;;;;4897015;29;20916;-88
2023/04/02 05:07:33;;;;;;;10.53;9.53;;;8.10;99.90;;;;;;4878090;29;20491;-89
2023/04/02 05:10:11;;;;;;;10.27;9.37;;;8.20;99.90;;;;;;4895265;29;20435;-88
2023/04/02 05:12:44;;;;;;;10.33;8.67;;;8.20;99.90;;;;;;4896618;29;20442;-87
2023/04/02 05:15:19;;;;;;;9.83;8.77;;;8.00;99.90;;;;;;4896674;29;20411;-88
2023/04/02 05:17:52;;;;;;;10.97;9.73;;;7.90;99.90;;;;;;4896558;29;20433;-87
2023/04/02 05:20:41;;;;;;;11.83;10.53;;;7.90;99.90;;;;;;4895851;29;20443;-87
2023/04/02 05:23:18;;;;;;;10.47;9.57;;;7.90;99.90;;;;;;4894058;29;20836;-89
2023/04/02 05:26:06;;;;;;;12.77;9.70;;;8.00;99.90;;;;;;4896215;29;20758;-89
2023/04/02 05:29:00;;;;;;;9.37;8.47;;;8.10;99.90;;;;;;4894881;29;20436;-89
2023/04/02 05:31:39;;;;;;;8.80;8.00;;;8.00;99.90;;;;;;4895813;29;20467;-88
2023/04/02 05:34:05;;;;;;;10.23;9.30;;;7.80;99.90;;;;;;4897265;29;20474;-88
2023/04/02 05:36:31;;;;;;;11.97;9.80;;;7.80;99.90;;;;;;4897232;29;20413;-87
2023/04/02 05:38:58;;;;;;;12.67;9.50;;;7.80;99.90;;;;;;4895874;29;20817;-84
2023/04/02 05:41:45;;;;;;;10.63;9.70;;;7.70;99.90;;;;;;4895156;29;20448;-85
2023/04/02 05:44:32;;;;;;;10.67;9.60;;;7.70;99.90;;;;;;4893657;29;20452;-85
2023/04/02 05:47:12;;;;;;;13.93;9.83;;;7.60;99.90;;;;;;4877961;29;20916;-83
2023/04/02 05:49:38;;;;;;;9.80;8.80;;;7.60;99.90;;;;;;4890613;29;20782;-89
2023/04/02 05:52:07;;;;;;;10.23;9.23;;;7.60;99.90;;;;;;4895473;29;20547;-88
2023/04/02 05:54:46;;;;;;;10.53;9.50;;;7.50;99.90;;;;;;4897269;29;20357;-86
2023/04/02 05:57:20;;;;;;;14.03;10.60;;;7.50;99.90;;;;;;4895422;29;20434;-84
2023/04/02 05:59:54;;;;;;;10.67;9.57;;;7.60;99.90;;;;;;4895065;29;20476;-88
2023/04/02 06:02:35;;;;;;;10.67;8.43;;;7.50;99.90;;;;;;4895382;29;21365;-85
2023/04/02 06:05:17;;;;;;;13.80;9.63;;;7.50;99.90;;;;;;4894767;29;20799;-83
2023/04/02 06:08:24;;;;;;;13.30;10.67;;;7.60;99.90;;;;;;4896003;29;20497;-85
2023/04/02 06:11:10;;;;;;;10.43;9.37;;;7.60;99.90;;;;;;4895534;29;20972;-84
2023/04/02 06:13:36;;;;;;;9.97;9.00;;;7.70;99.90;;;;;;4896300;29;20449;-85
2023/04/02 06:16:03;;;;;;;11.87;10.67;;;7.70;99.90;;;;;;4910811;29;20512;-85
2023/04/02 06:18:35;;;;;;;11.77;10.57;;;7.70;99.90;;;;;;4896593;29;20541;-86
2023/04/02 06:21:03;;;;;;;9.80;8.13;;;7.60;99.90;;;;;;4894345;29;20421;-84
2023/04/02 06:23:37;;;;;;;13.70;10.50;;;7.70;99.90;;;;;;4896839;29;20764;-89
2023/04/02 06:26:10;;;;;;;10.90;9.80;;;7.70;99.90;;;;;;4895033;29;20444;-85
2023/04/02 06:29:05;;;;;;;11.33;10.17;;;7.80;99.90;;;;;;4892907;29;20454;-86
2023/04/02 06:32:01;;;;;;;13.40;9.97;;;7.80;99.90;;;;;;4886167;29;20490;-87
2023/04/02 06:34:29;;;;;;;12.30;10.80;;;7.80;99.90;;;;;;4895308;29;20873;-86
2023/04/02 06:36:58;;;;;;;11.30;9.40;;;7.80;99.90;;;;;;4885653;29;20466;-86
2023/04/02 06:39:25;;;;;;;12.30;9.90;;;7.80;99.90;;;;;;4899369;29;20409;-85
2023/04/02 06:42:05;;;;;;;10.30;9.10;;;7.90;99.90;;;;;;4882868;29;20495;-85
2023/04/02 06:44:34;;;;;;;12.70;10.23;;;7.80;99.90;;;;;;4892817;29;20512;-85
2023/04/02 06:47:27;;;;;;;17.90;10.20;;;7.80;99.90;;;;;;4896973;29;20800;-82
2023/04/02 06:49:59;;;;;;;11.23;9.63;;;7.70;99.90;;;;;;4896847;29;20448;-85
2023/04/02 06:52:29;;;;;;;10.67;9.50;;;7.60;99.90;;;;;;4899359;29;20543;-80
2023/04/02 06:54:56;;;;;;;9.40;8.60;;;7.40;99.90;;;;;;4899192;29;20967;-81
2023/04/02 06:57:21;;;;;;;10.33;9.23;;;7.40;99.90;;;;;;4897379;29;20443;-89
2023/04/02 06:59:47;;;;;;;11.50;10.43;;;7.50;99.90;;;;;;4899171;29;20432;-80
2023/04/02 07:02:19;;;;;;;9.37;8.30;;;7.50;99.90;;;;;;4898221;29;20243;-79
2023/04/02 07:04:45;;;;;;;9.57;8.57;;;7.50;99.90;;;;;;4898930;29;20942;-80
2023/04/02 07:07:11;;;;;;;12.43;9.47;;;7.50;99.90;;;;;;4897558;29;20473;-80
2023/04/02 07:09:37;;;;;;;10.47;9.03;;;7.50;99.90;;;;;;4899724;29;20428;-80
2023/04/02 07:12:10;;;;;;;12.50;8.97;;;7.50;99.90;;;;;;4898230;29;20473;-79
2023/04/02 07:14:36;;;;;;;12.60;9.33;;;7.40;99.90;;;;;;4898116;29;20315;-86
2023/04/02 07:17:02;;;;;;;9.70;8.80;;;7.40;99.90;;;;;;4894992;29;20517;-83
2023/04/02 07:19:27;;;;;;;12.80;8.70;;;7.40;99.90;;;;;;4897046;29;20197;-80
2023/04/02 07:21:53;;;;;;;10.23;9.20;;;7.40;99.90;;;;;;4896196;29;20192;-80
2023/04/02 07:24:19;;;;;;;10.70;9.50;;;7.30;99.90;;;;;;4897418;29;20189;-80
2023/04/02 07:26:46;;;;;;;11.23;9.53;;;7.30;99.90;;;;;;4898651;29;20645;-80
2023/04/02 07:29:15;;;;;;;9.77;8.77;;;7.40;99.90;;;;;;4897371;29;20483;-80
2023/04/02 07:31:41;;;;;;;10.83;9.83;;;7.50;99.90;;;;;;4898984;29;20584;-80
2023/04/02 07:34:07;;;;;;;13.83;8.93;;;7.50;99.90;;;;;;4898235;29;20425;-80
2023/04/02 07:36:34;;;;;;;10.33;9.43;;;7.40;99.90;;;;;;4897934;29;20441;-80
2023/04/02 07:39:01;;;;;;;10.00;9.10;;;7.40;99.90;;;;;;4896152;29;20515;-80
2023/04/02 07:41:27;;;;;;;9.33;8.40;;;7.40;99.90;;;;;;4894986;29;20434;-80
2023/04/02 07:43:53;;;;;;;10.00;9.10;;;7.40;99.90;;;;;;4895652;29;20452;-80
2023/04/02 07:46:19;;;;;;;9.20;8.40;;;7.40;99.90;;;;;;4893797;29;20396;-79
2023/04/02 07:48:46;;;;;;;9.77;8.97;;;7.50;99.90;;;;;;4908526;29;20925;-80
2023/04/02 07:51:24;;;;;;;9.70;8.80;;;7.50;99.90;;;;;;4890541;29;20735;-79
2023/04/02 07:53:54;;;;;;;12.57;9.43;;;7.50;99.90;;;;;;4883602;29;20437;-80
2023/04/02 07:56:22;;;;;;;11.40;9.80;;;7.50;99.90;;;;;;4896623;29;20430;-79
2023/04/02 07:58:47;;;;;;;9.03;8.20;;;7.50;99.90;;;;;;4895976;29;20438;-80
2023/04/02 08:01:16;;;;;;;9.10;8.30;;;7.50;99.90;;;;;;4896931;29;20489;-79
2023/04/02 08:03:42;;;;;;;8.00;7.40;;;7.50;99.90;;;;;;4895330;29;20191;-79
2023/04/02 08:06:08;;;;;;;10.23;9.33;;;7.60;99.90;;;;;;4897241;29;20501;-79
2023/04/02 08:08:33;;;;;;;10.70;9.70;;;7.70;99.90;;;;;;4897807;29;20268;-79
2023/04/02 08:10:59;;;;;;;12.20;9.57;;;7.80;99.90;;;;;;4894096;29;20216;-79
2023/04/02 08:13:25;;;;;;;9.63;8.70;;;7.80;99.90;;;;;;4894227;29;20306;-80
2023/04/02 08:15:51;;;;;;;8.63;7.93;;;7.80;99.90;;;;;;4893100;29;20434;-79
2023/04/02 08:18:17;;;;;;;9.80;8.80;;;7.80;99.90;;;;;;4895451;29;20194;-79
2023/04/02 08:20:42;;;;;;;9.40;8.53;;;7.80;99.90;;;;;;4896045;29;20867;-79
2023/04/02 08:23:17;;;;;;;9.07;8.13;;;7.80;99.90;;;;;;4892371;29;20186;-79
2023/04/02 08:25:44;;;;;;;8.97;8.07;;;7.80;99.90;;;;;;4896631;29;20314;-80
2023/04/02 08:28:10;;;;;;;8.10;7.40;;;7.80;99.90;;;;;;4896275;29;20442;-79
2023/04/02 08:30:36;;;;;;;7.50;6.80;;;7.80;99.90;;;;;;4897012;29;20401;-80
2023/04/02 08:33:02;;;;;;;7.20;6.70;;;7.70;99.90;;;;;;4897067;29;20189;-80
2023/04/02 08:35:28;;;;;;;8.37;7.73;;;7.70;99.90;;;;;;4896333;29;20438;-80
2023/04/02 08:37:53;;;;;;;8.10;7.30;;;8.30;99.90;;;;;;4896002;29;20562;-80
2023/04/02 08:40:40;;;;;;;8.73;7.90;;;9.00;99.90;;;;;;4897189;29;20194;-81
2023/04/02 08:43:08;;;;;;;7.80;6.97;;;9.70;99.90;;;;;;4896791;29;20195;-80
2023/04/02 08:46:00;;;;;;;7.33;6.53;;;10.30;99.90;;;;;;4896975;29;20463;-80
2023/04/02 08:48:26;;;;;;;9.43;8.53;;;10.70;99.90;;;;;;4891601;29;20620;-80
2023/04/02 08:50:52;;;;;;;9.50;8.00;;;11.00;99.90;;;;;;4896008;29;22574;-80
2023/04/02 08:53:29;;;;;;;10.83;7.40;;;11.40;99.90;;;;;;4896071;29;20446;-80
2023/04/02 08:56:18;;;;;;;8.60;7.47;;;11.60;99.90;;;;;;4904435;29;20430;-80
2023/04/02 08:58:54;;;;;;;8.20;7.17;;;11.70;99.90;;;;;;4890729;29;20457;-80
2023/04/02 09:01:26;;;;;;;7.50;6.47;;;11.90;99.90;;;;;;4885873;29;20807;-80
2023/04/02 09:03:56;;;;;;;12.03;8.00;;;12.00;99.90;;;;;;4901623;29;20423;-80
2023/04/02 09:06:23;;;;;;;6.47;5.90;;;12.30;99.90;;;;;;4892232;29;20491;-80
2023/04/02 09:08:50;;;;;;;6.87;6.17;;;12.30;99.90;;;;;;4893502;29;20783;-80
2023/04/02 09:11:25;;;;;;;9.03;7.50;;;12.30;99.90;;;;;;4893815;29;20476;-80
2023/04/02 09:14:00;;;;;;;6.73;6.07;;;12.40;99.90;;;;;;4907183;29;20766;-84
2023/04/02 09:16:51;;;;;;;13.57;8.70;;;12.50;99.90;;;;;;4885384;29;20442;-81
2023/04/02 09:19:24;;;;;;;8.70;6.87;;;12.60;99.90;;;;;;4889526;29;20863;-81
2023/04/02 09:22:08;;;;;;;7.27;6.57;;;12.70;99.90;;;;;;4889789;29;20977;-80
2023/04/02 09:24:36;;;;;;;7.60;6.80;;;12.80;99.90;;;;;;4889321;29;20426;-80
2023/04/02 09:27:02;;;;;;;11.93;9.20;;;12.70;99.40;;;;;;4891422;29;20441;-83
2023/04/02 09:29:44;;;;;;;30.40;14.90;;;12.70;99.90;;;;;;4888797;29;20510;-81
2023/04/02 09:32:32;;;;;;;9.37;7.87;;;12.70;99.90;;;;;;4889448;29;20818;-81
2023/04/02 09:35:18;;;;;;;13.80;10.23;;;12.90;99.90;;;;;;4906215;29;20788;-81
2023/04/02 09:37:44;;;;;;;17.50;13.37;;;12.70;99.70;;;;;;4890433;29;20558;-81
2023/04/02 09:40:25;;;;;;;20.63;12.93;;;12.70;99.90;;;;;;4891905;29;20555;-80
2023/04/02 09:43:18;;;;;;;27.30;18.00;;;12.90;99.90;;;;;;4889357;29;20427;-80
2023/04/02 09:45:55;;;;;;;16.50;9.60;;;12.80;99.90;;;;;;4889012;29;20450;-80
2023/04/02 09:48:23;;;;;;;22.53;15.67;;;12.80;98.10;;;;;;4890339;29;20514;-80
2023/04/02 09:50:49;;;;;;;21.03;13.90;;;12.90;99.90;;;;;;4892373;29;20464;-80
2023/04/02 09:53:26;;;;;;;67.50;44.00;;;13.10;99.90;;;;;;4888878;29;20514;-80
2023/04/02 09:56:16;;;;;;;58.37;39.17;;;13.50;99.90;;;;;;4887479;29;20449;-80
2023/04/02 09:58:44;;;;;;;36.53;23.70;;;13.80;99.90;;;;;;4888176;29;20439;-80
2023/04/02 10:01:40;;;;;;;13.10;10.60;;;14.00;99.90;;;;;;4890453;29;20501;-80
2023/04/02 10:04:26;;;;;;;19.43;15.23;;;14.20;94.90;;;;;;4891964;29;20512;-80
2023/04/02 10:06:57;;;;;;;24.53;17.27;;;14.30;96.10;;;;;;4891767;29;20446;-80
2023/04/02 10:09:31;;;;;;;11.40;8.83;;;14.20;99.90;;;;;;4890446;29;20465;-80
2023/04/02 10:12:00;;;;;;;7.70;6.93;;;14.30;99.90;;;;;;4896210;29;20464;-90
2023/04/02 10:14:38;;;;;;;7.87;6.17;;;14.50;96.40;;;;;;4898229;29;20433;-92
2023/04/02 10:17:20;;;;;;;6.90;6.20;;;14.00;90.00;;;;;;4898378;29;20441;-92
2023/04/02 10:20:19;;;;;;;6.57;5.97;;;13.00;92.10;;;;;;4894583;29;20931;-90
2023/04/02 10:22:46;;;;;;;8.83;5.87;;;12.40;92.20;;;;;;4894782;29;20804;-90
2023/04/02 10:25:16;;;;;;;6.37;5.70;;;11.80;94.10;;;;;;4897271;29;20478;-87
2023/04/02 10:28:01;;;;;;;6.17;5.50;;;11.30;95.00;;;;;;4899288;29;20439;-90
2023/04/02 10:31:06;;;;;;;6.93;6.27;;;10.90;98.10;;;;;;4898968;29;21405;-86
2023/04/02 10:33:36;;;;;;;7.30;5.73;;;10.30;99.90;;;;;;4875612;29;21018;-89
2023/04/02 10:36:20;;;;;;;7.13;5.80;;;9.70;99.90;;;;;;4898643;29;20944;-92
2023/04/02 10:39:07;;;;;;;7.13;5.83;;;9.50;99.90;;;;;;4896133;29;20474;-93
2023/04/02 10:41:56;;;;;;;6.07;5.50;;;9.20;99.90;;;;;;4892352;29;20451;-90
2023/04/02 10:44:30;;;;;;;9.03;5.03;;;9.10;99.90;;;;;;4898322;29;20915;-88
2023/04/02 10:47:17;;;;;;;9.30;6.27;;;9.00;99.90;;;;;;4890134;29;20470;-86
2023/04/02 10:50:11;;;;;;;8.27;6.37;;;9.10;99.90;;;;;;4904682;29;20795;-89
2023/04/02 10:53:00;;;;;;;8.43;6.80;;;8.90;99.90;;;;;;4896094;29;20542;-89
2023/04/02 10:55:31;;;;;;;8.40;6.10;;;8.90;99.90;;;;;;4898281;29;20435;-89
2023/04/02 10:58:04;;;;;;;7.47;5.70;;;8.80;99.90;;;;;;4898290;29;20430;-86
2023/04/02 11:00:41;;;;;;;6.13;5.17;;;8.80;99.90;;;;;;4898468;29;20423;-89
2023/04/02 11:03:28;;;;;;;6.60;4.93;;;8.80;99.90;;;;;;4899033;29;20431;-89
2023/04/02 11:05:57;;;;;;;5.30;4.90;;;8.70;99.90;;;;;;4887989;29;20947;-89
2023/04/02 11:08:25;;;;;;;5.77;5.03;;;8.80;99.90;;;;;;4898719;29;20797;-88
2023/04/02 11:11:21;;;;;;;4.80;4.40;;;8.70;99.90;;;;;;4897782;29;20501;-88
2023/04/02 11:13:47;;;;;;;6.63;5.50;;;8.70;99.90;;;;;;4878496;29;20471;-89
2023/04/02 11:16:16;;;;;;;5.93;5.23;;;8.90;99.90;;;;;;4896156;29;20440;-83
2023/04/02 11:19:02;;;;;;;7.03;5.13;;;8.80;99.90;;;;;;4894069;29;20190;-88
2023/04/02 11:21:41;;;;;;;6.97;5.60;;;8.90;99.90;;;;;;4915415;29;20423;-85
2023/04/02 11:24:32;;;;;;;6.63;5.53;;;8.90;99.90;;;;;;4894776;29;20419;-88
2023/04/02 11:27:10;;;;;;;6.70;6.00;;;8.90;99.90;;;;;;4882229;29;20923;-89
2023/04/02 11:29:56;;;;;;;7.47;5.50;;;8.90;99.90;;;;;;4890323;29;20459;-88
2023/04/02 11:32:26;;;;;;;5.13;4.70;;;9.00;99.90;;;;;;4890543;29;20474;-90
2023/04/02 11:34:52;;;;;;;6.00;5.40;;;9.00;99.90;;;;;;4884283;29;20435;-89
2023/04/02 11:37:39;;;;;;;5.30;4.90;;;9.00;99.90;;;;;;4894309;29;20538;-88
2023/04/02 11:40:12;;;;;;;6.87;5.07;;;9.00;99.90;;;;;;4887529;29;20858;-88
2023/04/02 11:42:42;;;;;;;7.27;5.67;;;9.00;99.90;;;;;;4897873;29;20431;-91
2023/04/02 11:48:02;;;;;;;71.83;44.57;;;11.10;99.90;;;;;;4898221;29;20438;-80
2023/04/02 11:50:37;;;;;;;150.97;95.07;;;12.40;99.90;;;;;;4896918;29;20776;-80
2023/04/02 11:53:15;;;;;;;46.57;31.17;;;12.70;99.90;;;;;;4897702;29;20859;-80
2023/04/02 11:55:41;;;;;;;21.30;15.00;;;13.00;99.90;;;;;;4898464;29;20405;-80
2023/04/02 11:58:21;;;;;;;11.70;10.27;;;13.20;99.90;;;;;;4897518;29;20458;-80
2023/04/02 12:01:06;;;;;;;16.27;12.43;;;13.30;97.60;;;;;;4898754;29;20448;-80
2023/04/02 12:04:04;;;;;;;30.13;20.93;;;13.40;97.80;;;;;;4898088;29;20426;-80
2023/04/02 12:06:45;;;;;;;24.00;15.53;;;13.60;98.70;;;;;;4897489;29;21000;-80
2023/04/02 12:09:54;;;;;;;17.40;13.67;;;13.80;98.80;;;;;;4898286;29;20428;-80
2023/04/02 12:12:27;;;;;;;14.97;11.53;;;13.90;97.70;;;;;;4851250;29;21062;-80
2023/04/02 12:14:58;;;;;;;24.27;16.17;;;13.90;97.20;;;;;;4898518;29;20416;-80
2023/04/02 12:17:44;;;;;;;25.87;15.30;;;14.00;95.00;;;;;;4897411;29;20510;-80
2023/04/02 12:20:12;;;;;;;7.57;6.83;;;14.00;96.70;;;;;;4897975;29;20506;-80
2023/04/02 12:22:46;;;;;;;9.60;8.00;;;14.10;93.00;;;;;;4897308;29;20481;-80
2023/04/02 12:25:28;;;;;;;10.67;7.73;;;14.10;94.70;;;;;;4898361;29;20746;-80
2023/04/02 12:28:18;;;;;;;5.83;5.33;;;14.20;95.50;;;;;;4897487;29;20448;-80
2023/04/02 12:30:49;;;;;;;5.70;5.20;;;14.30;97.10;;;;;;4898097;29;20411;-80
2023/04/02 12:33:18;;;;;;;8.43;7.43;;;14.30;90.20;;;;;;4897331;29;20415;-80
2023/04/02 12:35:45;;;;;;;11.17;8.60;;;14.30;90.50;;;;;;4898322;29;20446;-80
2023/04/02 12:38:23;;;;;;;11.60;9.17;;;14.30;94.70;;;;;;4897880;29;20463;-80
2023/04/02 12:40:54;;;;;;;6.87;6.13;;;14.40;96.00;;;;;;4897133;29;20437;-80
2023/04/02 12:43:28;;;;;;;14.87;11.87;;;14.50;90.80;;;;;;4896496;29;20540;-84
2023/04/02 12:45:57;;;;;;;22.07;16.40;;;14.60;96.30;;;;;;4897271;29;20442;-84
2023/04/02 12:48:24;;;;;;;19.20;14.40;;;15.30;99.80;;;;;;4893356;29;20432;-87
2023/04/02 12:50:53;;;;;;;12.70;10.47;;;16.00;95.40;;;;;;4891989;29;20487;-83
2023/04/02 12:53:30;;;;;;;8.70;7.83;;;16.40;90.90;;;;;;4891610;29;20772;-83
2023/04/02 12:55:56;;;;;;;7.43;6.73;;;16.50;85.00;;;;;;4892721;29;20395;-83
2023/04/02 12:58:27;;;;;;;5.47;5.07;;;16.50;83.70;;;;;;4891932;29;20530;-83
2023/04/02 13:01:10;;;;;;;6.50;5.90;;;16.50;82.00;;;;;;4892536;29;20476;-83
2023/04/02 13:03:36;;;;;;;6.80;6.20;;;16.40;83.10;;;;;;4890732;29;20442;-83
2023/04/02 13:06:02;;;;;;;6.47;5.90;;;16.50;81.80;;;;;;4893006;29;20784;-83
2023/04/02 13:08:36;;;;;;;7.17;6.30;;;16.60;81.70;;;;;;4892847;29;20422;-83
2023/04/02 13:11:04;;;;;;;5.40;5.00;;;16.70;80.10;;;;;;4893346;29;20549;-83
2023/04/02 13:13:39;;;;;;;5.83;5.40;;;16.60;80.20;;;;;;4893099;29;20454;-83
2023/04/02 13:16:13;;;;;;;4.20;3.20;;;16.70;80.00;;;;;;4891477;29;20438;-83
2023/04/02 13:18:41;;;;;;;4.70;4.30;;;16.50;77.60;;;;;;4891668;29;20407;-83
2023/04/02 13:21:26;;;;;;;4.37;3.97;;;16.60;79.60;;;;;;4892284;29;20427;-83
2023/04/02 13:23:52;;;;;;;4.73;4.30;;;16.80;79.20;;;;;;4892767;29;20423;-83
2023/04/02 13:26:27;;;;;;;57.57;30.93;;;17.00;77.40;;;;;;4894577;29;20781;-81
2023/04/02 13:29:00;;;;;;;133.70;95.43;;;17.00;75.00;;;;;;4895506;29;20440;-81
2023/04/02 13:31:28;;;;;;;4.57;4.27;;;16.30;65.60;;;;;;4895741;29;20984;-81
2023/04/02 13:33:54;;;;;;;3.67;3.47;;;15.40;64.80;;;;;;4888991;29;20432;-82